createdAt,value
2018-04-16T00:00:46.336Z,1005.70
2018-04-16T00:01:46.301Z,1005.69
2018-04-16T00:02:46.290Z,1005.67
2018-04-16T00:03:46.292Z,1005.63
2018-04-16T00:04:46.278Z,1005.63
2018-04-16T00:05:46.283Z,1005.59
2018-04-16T00:06:46.290Z,1005.61
2018-04-16T00:07:46.329Z,1005.58
2018-04-16T00:08:46.306Z,1005.54
2018-04-16T00:09:46.293Z,1005.56
2018-04-16T00:10:46.298Z,1005.54
2018-04-16T00:11:46.301Z,1005.53
2018-04-16T00:12:46.316Z,1005.53
2018-04-16T00:13:46.326Z,1005.53
2018-04-16T00:14:46.298Z,1005.56
2018-04-16T00:15:46.303Z,1005.54
2018-04-16T00:16:46.325Z,1005.57
2018-04-16T00:17:46.313Z,1005.55
2018-04-16T00:18:46.318Z,1005.55
2018-04-16T00:19:46.306Z,1005.58
2018-04-16T00:20:46.317Z,1005.57
2018-04-16T00:21:46.302Z,1005.57
2018-04-16T00:22:46.311Z,1005.59
2018-04-16T00:23:46.323Z,1005.52
2018-04-16T00:24:46.317Z,1005.55
2018-04-16T00:25:47.078Z,1005.53
2018-04-16T00:26:48.149Z,1005.52
2018-04-16T00:27:46.356Z,1005.49
2018-04-16T00:28:46.340Z,1005.49
2018-04-16T00:29:46.352Z,1005.44
2018-04-16T00:30:46.336Z,1005.50
2018-04-16T00:31:46.346Z,1005.48
2018-04-16T00:32:46.363Z,1005.47
2018-04-16T00:33:46.361Z,1005.46
2018-04-16T00:34:46.370Z,1005.52
2018-04-16T00:35:48.137Z,1005.50
2018-04-16T00:36:46.389Z,1005.50
2018-04-16T00:37:46.354Z,1005.52
2018-04-16T00:38:46.403Z,1005.51
2018-04-16T00:39:46.359Z,1005.52
2018-04-16T00:40:46.375Z,1005.53
2018-04-16T00:41:46.378Z,1005.51
2018-04-16T00:42:46.374Z,1005.51
2018-04-16T00:43:46.369Z,1005.50
2018-04-16T00:44:46.375Z,1005.51
2018-04-16T00:45:46.391Z,1005.47
2018-04-16T00:46:46.390Z,1005.50
2018-04-16T00:47:46.378Z,1005.48
2018-04-16T00:48:46.388Z,1005.49
2018-04-16T00:49:46.374Z,1005.51
2018-04-16T00:50:46.387Z,1005.55
2018-04-16T00:51:46.398Z,1005.53
2018-04-16T00:52:46.394Z,1005.51
2018-04-16T00:53:46.393Z,1005.53
2018-04-16T00:54:48.160Z,1005.50
2018-04-16T00:55:46.428Z,1005.50
2018-04-16T00:56:46.433Z,1005.54
2018-04-16T00:57:46.472Z,1005.58
2018-04-16T00:58:46.412Z,1005.55
2018-04-16T00:59:46.400Z,1005.54
2018-04-16T01:00:46.458Z,1005.56
2018-04-16T01:01:47.086Z,1005.55
2018-04-16T01:02:46.410Z,1005.54
2018-04-16T01:03:46.427Z,1005.57
2018-04-16T01:04:46.432Z,1005.61
2018-04-16T01:05:46.506Z,1005.63
2018-04-16T01:06:47.088Z,1005.63
2018-04-16T01:07:46.429Z,1005.62
2018-04-16T01:08:46.437Z,1005.64
2018-04-16T01:09:46.433Z,1005.66
2018-04-16T01:10:46.445Z,1005.62
2018-04-16T01:11:46.427Z,1005.65
2018-04-16T01:12:46.450Z,1005.64
2018-04-16T01:13:46.463Z,1005.68
2018-04-16T01:14:48.155Z,1005.67
2018-04-16T01:15:46.451Z,1005.66
2018-04-16T01:16:46.445Z,1005.66
2018-04-16T01:17:46.455Z,1005.64
2018-04-16T01:18:46.449Z,1005.65
2018-04-16T01:19:46.545Z,1005.65
2018-04-16T01:20:46.465Z,1005.67
2018-04-16T01:21:46.488Z,1005.65
2018-04-16T01:22:46.471Z,1005.68
2018-04-16T01:23:46.500Z,1005.66
2018-04-16T01:24:46.463Z,1005.66
2018-04-16T01:25:46.480Z,1005.69
2018-04-16T01:26:46.459Z,1005.70
2018-04-16T01:27:46.499Z,1005.68
2018-04-16T01:28:46.521Z,1005.68
2018-04-16T01:29:46.477Z,1005.71
2018-04-16T01:30:46.479Z,1005.68
2018-04-16T01:31:46.516Z,1005.70
2018-04-16T01:32:46.486Z,1005.68
2018-04-16T01:33:46.496Z,1005.73
2018-04-16T01:34:46.505Z,1005.72
2018-04-16T01:35:46.508Z,1005.72
2018-04-16T01:36:46.500Z,1005.72
2018-04-16T01:37:46.519Z,1005.74
2018-04-16T01:38:46.518Z,1005.78
2018-04-16T01:39:48.166Z,1005.80
2018-04-16T01:40:46.503Z,1005.73
2018-04-16T01:41:46.515Z,1005.73
2018-04-16T01:42:46.528Z,1005.76
2018-04-16T01:43:46.536Z,1005.75
2018-04-16T01:44:46.536Z,1005.78
2018-04-16T01:45:46.532Z,1005.80
2018-04-16T01:46:46.526Z,1005.79
2018-04-16T01:47:46.536Z,1005.79
2018-04-16T01:48:46.515Z,1005.77
2018-04-16T01:49:46.538Z,1005.78
2018-04-16T01:50:46.546Z,1005.77
2018-04-16T01:51:46.535Z,1005.78
2018-04-16T01:52:46.549Z,1005.80
2018-04-16T01:53:46.576Z,1005.77
2018-04-16T01:54:46.554Z,1005.77
2018-04-16T01:55:46.572Z,1005.78
2018-04-16T01:56:46.557Z,1005.78
2018-04-16T01:57:46.559Z,1005.79
2018-04-16T01:58:46.561Z,1005.80
2018-04-16T01:59:46.551Z,1005.82
2018-04-16T02:00:46.603Z,1005.80
2018-04-16T02:01:46.548Z,1005.82
2018-04-16T02:02:46.587Z,1005.84
2018-04-16T02:03:46.597Z,1005.80
2018-04-16T02:04:46.557Z,1005.84
2018-04-16T02:05:50.104Z,1005.87
2018-04-16T02:06:48.177Z,1005.82
2018-04-16T02:07:46.569Z,1005.86
2018-04-16T02:08:46.560Z,1005.85
2018-04-16T02:09:46.579Z,1005.87
2018-04-16T02:10:46.599Z,1005.84
2018-04-16T02:11:46.572Z,1005.87
2018-04-16T02:12:46.584Z,1005.83
2018-04-16T02:13:46.586Z,1005.86
2018-04-16T02:14:46.598Z,1005.81
2018-04-16T02:15:46.605Z,1005.83
2018-04-16T02:16:46.595Z,1005.88
2018-04-16T02:17:46.606Z,1005.87
2018-04-16T02:18:46.583Z,1005.85
2018-04-16T02:19:46.608Z,1005.86
2018-04-16T02:20:46.590Z,1005.82
2018-04-16T02:21:46.598Z,1005.83
2018-04-16T02:22:46.603Z,1005.85
2018-04-16T02:23:46.595Z,1005.83
2018-04-16T02:24:46.606Z,1005.81
2018-04-16T02:25:46.602Z,1005.80
2018-04-16T02:26:46.629Z,1005.79
2018-04-16T02:27:46.612Z,1005.76
2018-04-16T02:28:46.614Z,1005.75
2018-04-16T02:29:46.636Z,1005.79
2018-04-16T02:30:46.616Z,1005.78
2018-04-16T02:31:46.622Z,1005.77
2018-04-16T02:32:46.614Z,1005.79
2018-04-16T02:33:46.626Z,1005.77
2018-04-16T02:34:46.629Z,1005.75
2018-04-16T02:35:46.646Z,1005.78
2018-04-16T02:36:46.646Z,1005.75
2018-04-16T02:37:46.640Z,1005.76
2018-04-16T02:38:49.181Z,1005.77
2018-04-16T02:39:46.787Z,1005.77
2018-04-16T02:45:20.559Z,1005.82
2018-04-16T02:46:22.371Z,1005.83
2018-04-16T02:47:23.375Z,1005.88
2018-04-16T02:50:25.596Z,1005.86
2018-04-16T02:51:21.291Z,1005.88
2018-04-16T02:52:21.989Z,1005.93
2018-04-16T02:53:22.643Z,1005.93
2018-04-16T02:54:22.531Z,1005.91
2018-04-16T02:55:23.976Z,1005.90
2018-04-16T02:56:23.638Z,1005.94
2018-04-16T02:57:23.703Z,1005.97
2018-04-16T02:58:22.549Z,1005.94
2018-04-16T02:59:23.252Z,1005.95
2018-04-16T03:00:23.014Z,1005.95
2018-04-16T03:01:20.342Z,1005.91
2018-04-16T03:02:26.594Z,1005.96
2018-04-16T03:03:21.596Z,1005.94
2018-04-16T03:04:22.506Z,1005.94
2018-04-16T03:05:21.978Z,1005.94
2018-04-16T03:06:20.961Z,1005.97
2018-04-16T03:07:24.297Z,1005.96
2018-04-16T03:08:23.109Z,1005.97
2018-04-16T03:09:22.263Z,1005.95
2018-04-16T03:10:22.343Z,1005.96
2018-04-16T03:11:20.916Z,1005.96
2018-04-16T03:12:21.858Z,1005.98
2018-04-16T03:13:21.261Z,1005.95
2018-04-16T03:14:23.409Z,1005.94
2018-04-16T03:15:22.754Z,1005.98
2018-04-16T03:16:23.236Z,1005.98
2018-04-16T03:17:19.586Z,1006.00
2018-04-16T03:18:20.284Z,1005.99
2018-04-16T03:19:21.091Z,1005.98
2018-04-16T03:20:22.898Z,1006.02
2018-04-16T03:21:20.565Z,1005.98
2018-04-16T03:22:21.506Z,1005.98
2018-04-16T03:23:26.105Z,1005.96
2018-04-16T03:24:23.678Z,1005.96
2018-04-16T03:25:23.001Z,1005.98
2018-04-16T03:26:22.631Z,1005.98
2018-04-16T03:27:22.201Z,1005.93
2018-04-16T03:28:20.101Z,1005.95
2018-04-16T03:29:19.456Z,1005.95
2018-04-16T03:30:19.719Z,1005.98
2018-04-16T03:31:20.506Z,1006.02
2018-04-16T03:32:20.023Z,1006.00
2018-04-16T03:33:22.175Z,1005.98
2018-04-16T03:34:23.540Z,1005.99
2018-04-16T03:35:23.982Z,1006.04
2018-04-16T03:36:24.842Z,1006.03
2018-04-16T03:37:21.551Z,1006.06
2018-04-16T03:38:22.393Z,1006.05
2018-04-16T03:39:20.845Z,1006.03
2018-04-16T03:40:21.978Z,1006.06
2018-04-16T03:41:22.226Z,1006.07
2018-04-16T03:42:23.043Z,1006.11
2018-04-16T03:43:20.564Z,1006.14
2018-04-16T03:44:22.239Z,1006.14
2018-04-16T03:45:21.435Z,1006.17
2018-04-16T03:46:25.885Z,1006.15
2018-04-16T03:47:24.450Z,1006.19
2018-04-16T03:48:22.993Z,1006.19
2018-04-16T03:49:23.894Z,1006.21
2018-04-16T03:50:25.179Z,1006.19
2018-04-16T03:51:23.519Z,1006.17
2018-04-16T03:52:22.921Z,1006.19
2018-04-16T03:53:23.701Z,1006.14
2018-04-16T03:54:23.254Z,1006.15
2018-04-16T03:55:23.107Z,1006.13
2018-04-16T03:56:20.224Z,1006.21
2018-04-16T03:57:20.713Z,1006.17
2018-04-16T03:58:24.106Z,1006.18
2018-04-16T03:59:21.291Z,1006.21
2018-04-16T04:00:21.070Z,1006.23
2018-04-16T04:01:20.360Z,1006.24
2018-04-16T04:02:22.520Z,1006.30
2018-04-16T04:03:21.885Z,1006.25
2018-04-16T04:04:20.113Z,1006.24
2018-04-16T04:05:21.386Z,1006.26
2018-04-16T04:06:19.966Z,1006.23
2018-04-16T04:07:21.564Z,1006.24
2018-04-16T04:08:20.450Z,1006.23
2018-04-16T04:09:21.758Z,1006.27
2018-04-16T04:10:22.224Z,1006.25
2018-04-16T04:11:21.463Z,1006.28
2018-04-16T04:12:21.443Z,1006.28
2018-04-16T04:13:22.075Z,1006.31
2018-04-16T04:14:21.935Z,1006.33
2018-04-16T04:15:19.943Z,1006.35
2018-04-16T04:16:20.474Z,1006.34
2018-04-16T04:17:20.503Z,1006.35
2018-04-16T04:18:22.844Z,1006.36
2018-04-16T04:19:21.085Z,1006.36
2018-04-16T04:20:20.896Z,1006.39
2018-04-16T04:21:22.588Z,1006.36
2018-04-16T04:22:23.429Z,1006.40
2018-04-16T04:23:20.846Z,1006.38
2018-04-16T04:24:23.600Z,1006.42
2018-04-16T04:25:20.881Z,1006.43
2018-04-16T04:26:21.495Z,1006.43
2018-04-16T04:27:19.923Z,1006.45
2018-04-16T04:28:21.895Z,1006.45
2018-04-16T04:29:20.505Z,1006.40
2018-04-16T04:30:22.036Z,1006.41
2018-04-16T04:31:21.999Z,1006.45
2018-04-16T04:32:20.874Z,1006.46
2018-04-16T04:33:21.041Z,1006.44
2018-04-16T04:34:24.206Z,1006.44
2018-04-16T04:35:21.293Z,1006.48
2018-04-16T04:36:22.068Z,1006.49
2018-04-16T04:37:20.499Z,1006.50
2018-04-16T04:38:22.205Z,1006.52
2018-04-16T04:39:20.494Z,1006.52
2018-04-16T04:40:24.173Z,1006.52
2018-04-16T04:41:20.695Z,1006.52
2018-04-16T04:42:21.686Z,1006.52
2018-04-16T04:43:20.914Z,1006.54
2018-04-16T04:44:20.649Z,1006.55
2018-04-16T04:45:22.973Z,1006.56
2018-04-16T04:46:20.432Z,1006.60
2018-04-16T04:47:20.299Z,1006.62
2018-04-16T04:48:21.426Z,1006.65
2018-04-16T04:49:21.357Z,1006.65
2018-04-16T04:50:20.916Z,1006.67
2018-04-16T04:51:21.643Z,1006.68
2018-04-16T04:52:20.152Z,1006.67
2018-04-16T04:53:20.795Z,1006.67
2018-04-16T04:55:25.412Z,1006.68
2018-04-16T04:56:23.093Z,1006.67
2018-04-16T04:57:20.423Z,1006.67
2018-04-16T04:58:21.239Z,1006.64
2018-04-16T04:59:20.391Z,1006.65
2018-04-16T05:00:21.073Z,1006.70
2018-04-16T05:01:19.681Z,1006.71
2018-04-16T05:02:22.092Z,1006.74
2018-04-16T05:03:21.179Z,1006.71
2018-04-16T05:04:19.333Z,1006.73
2018-04-16T05:05:19.307Z,1006.75
2018-04-16T05:06:19.429Z,1006.77
2018-04-16T05:07:20.099Z,1006.78
2018-04-16T05:08:19.352Z,1006.78
2018-04-16T05:09:19.337Z,1006.81
2018-04-16T05:10:20.917Z,1006.81
2018-04-16T05:11:19.351Z,1006.84
2018-04-16T05:12:19.600Z,1006.81
2018-04-16T05:13:19.335Z,1006.82
2018-04-16T05:14:19.379Z,1006.80
2018-04-16T05:15:19.596Z,1006.84
2018-04-16T05:16:19.382Z,1006.84
2018-04-16T05:17:20.245Z,1006.90
2018-04-16T05:18:22.340Z,1006.91
2018-04-16T05:19:19.351Z,1006.94
2018-04-16T05:20:19.502Z,1006.93
2018-04-16T05:21:21.056Z,1006.94
2018-04-16T05:23:21.483Z,1007.01
2018-04-16T05:24:25.341Z,1007.00
2018-04-16T05:25:20.754Z,1007.05
2018-04-16T05:26:27.589Z,1007.04
2018-04-16T05:27:20.527Z,1007.04
2018-04-16T05:28:25.996Z,1007.05
2018-04-16T05:29:19.380Z,1007.06
2018-04-16T05:30:27.957Z,1007.09
2018-04-16T05:31:19.389Z,1007.11
2018-04-16T05:32:25.474Z,1007.13
2018-04-16T05:33:19.407Z,1007.18
2018-04-16T05:34:24.772Z,1007.21
2018-04-16T05:35:19.446Z,1007.25
2018-04-16T05:36:20.797Z,1007.28
2018-04-16T05:37:19.663Z,1007.39
2018-04-16T05:39:21.134Z,1007.49
2018-04-16T05:40:25.250Z,1007.55
2018-04-16T05:41:20.312Z,1007.56
2018-04-16T05:42:19.621Z,1007.64
2018-04-16T05:43:19.470Z,1007.63
2018-04-16T05:45:19.410Z,1007.67
2018-04-16T05:46:23.980Z,1007.70
2018-04-16T05:47:24.065Z,1007.70
2018-04-16T05:48:21.060Z,1007.76
2018-04-16T05:49:19.518Z,1007.78
2018-04-16T05:50:25.721Z,1007.81
2018-04-16T05:51:24.606Z,1007.88
2018-04-16T05:52:27.816Z,1007.91
2018-04-16T05:54:42.119Z,1007.93
2018-04-16T05:55:29.016Z,1007.99
2018-04-16T05:58:02.671Z,1007.96
2018-04-16T05:58:27.516Z,1008.06
2018-04-16T05:59:32.434Z,1008.04
2018-04-16T06:00:35.275Z,1008.09
2018-04-16T06:03:31.042Z,1008.24
2018-04-16T06:05:26.222Z,1008.32
2018-04-16T06:06:32.609Z,1008.40
2018-04-16T06:07:20.181Z,1008.48
2018-04-16T06:08:26.909Z,1008.55
2018-04-16T06:10:22.543Z,1008.82
2018-04-16T06:11:23.078Z,1008.91
2018-04-16T06:12:27.754Z,1009.01
2018-04-16T06:13:28.515Z,1008.91
2018-04-16T06:14:26.474Z,1008.66
2018-04-16T06:15:24.071Z,1008.89
2018-04-16T06:20:23.053Z,1012.03
2018-04-16T06:21:20.345Z,1014.47
2018-04-16T06:25:51.811Z,1011.61
2018-04-16T06:26:52.613Z,1011.04
2018-04-16T06:27:51.798Z,1010.57
2018-04-16T06:28:51.777Z,1010.51
2018-04-16T06:29:53.623Z,1008.39
2018-04-16T06:30:51.783Z,1008.41
2018-04-16T06:31:52.622Z,1008.98
2018-04-16T06:32:52.619Z,1008.65
2018-04-16T06:33:51.815Z,1008.34
2018-04-16T06:34:51.931Z,1008.38
2018-04-16T06:35:51.822Z,1009.30
2018-04-16T06:36:51.849Z,1008.37
2018-04-16T06:37:51.858Z,1008.52
2018-04-16T06:38:51.844Z,1008.51
2018-04-16T06:39:51.848Z,1008.65
2018-04-16T06:40:51.860Z,1008.92
2018-04-16T06:41:51.869Z,1010.12
2018-04-16T06:42:51.947Z,1010.39
2018-04-16T06:43:51.865Z,1010.47
2018-04-16T06:44:51.856Z,1010.44
2018-04-16T06:45:51.876Z,1010.48
2018-04-16T06:46:51.928Z,1010.63
2018-04-16T06:47:51.947Z,1010.72
2018-04-16T06:48:51.888Z,1010.58
2018-04-16T06:49:51.898Z,1010.58
2018-04-16T06:50:51.909Z,1010.74
2018-04-16T06:51:51.924Z,1010.68
2018-04-16T06:52:51.920Z,1010.89
2018-04-16T06:53:51.930Z,1009.35
2018-04-16T06:54:51.931Z,1009.51
2018-04-16T06:55:51.951Z,1009.98
2018-04-16T06:56:51.941Z,1010.70
2018-04-16T06:57:52.633Z,1009.63
2018-04-16T06:58:51.973Z,1009.96
2018-04-16T06:59:51.980Z,1010.55
2018-04-16T07:00:52.097Z,1011.28
2018-04-16T07:01:52.004Z,1011.44
2018-04-16T07:02:51.995Z,1010.99
2018-04-16T07:03:52.004Z,1010.49
2018-04-16T07:04:52.023Z,1010.09
2018-04-16T07:05:52.006Z,1010.14
2018-04-16T07:06:52.020Z,1011.26
2018-04-16T07:07:52.024Z,1011.17
2018-04-16T07:08:52.051Z,1010.09
2018-04-16T07:09:52.058Z,1010.23
2018-04-16T07:10:52.050Z,1011.03
2018-04-16T07:11:52.098Z,1009.77
2018-04-16T07:12:52.717Z,1010.03
2018-04-16T07:13:52.140Z,1009.84
2018-04-16T07:14:52.116Z,1010.01
2018-04-16T07:15:52.160Z,1009.55
2018-04-16T07:16:52.129Z,1009.29
2018-04-16T07:17:52.118Z,1009.11
2018-04-16T07:18:52.106Z,1008.98
2018-04-16T07:19:52.115Z,1008.99
2018-04-16T07:20:52.214Z,1008.99
2018-04-16T07:21:52.130Z,1009.17
2018-04-16T07:22:52.151Z,1009.26
2018-04-16T07:23:52.166Z,1009.29
2018-04-16T07:24:52.165Z,1009.26
2018-04-16T07:25:52.344Z,1009.20
2018-04-16T07:26:52.175Z,1009.19
2018-04-16T07:27:52.276Z,1009.14
2018-04-16T07:28:52.289Z,1009.11
2018-04-16T07:29:52.200Z,1009.19
2018-04-16T07:30:52.206Z,1009.26
2018-04-16T07:31:52.235Z,1009.28
2018-04-16T07:32:52.219Z,1009.31
2018-04-16T07:33:52.214Z,1009.30
2018-04-16T07:34:52.231Z,1009.32
2018-04-16T07:35:52.330Z,1009.48
2018-04-16T07:36:52.250Z,1009.95
2018-04-16T07:37:52.238Z,1010.55
2018-04-16T07:38:52.248Z,1011.07
2018-04-16T07:39:52.249Z,1011.19
2018-04-16T07:40:52.261Z,1011.60
2018-04-16T07:41:52.294Z,1011.69
2018-04-16T07:42:52.264Z,1011.70
2018-04-16T07:43:52.304Z,1011.92
2018-04-16T07:44:52.298Z,1011.87
2018-04-16T07:45:52.313Z,1011.92
2018-04-16T07:46:53.160Z,1012.27
2018-04-16T07:47:52.358Z,1011.91
2018-04-16T07:48:52.404Z,1011.50
2018-04-16T07:49:52.337Z,1011.28
2018-04-16T07:50:52.367Z,1010.75
2018-04-16T07:51:52.329Z,1010.51
2018-04-16T07:52:52.359Z,1010.54
2018-04-16T07:53:52.468Z,1011.48
2018-04-16T07:54:52.521Z,1010.68
2018-04-16T07:55:52.416Z,1010.48
2018-04-16T07:56:53.166Z,1011.57
2018-04-16T07:57:53.395Z,1013.07
2018-04-16T07:58:52.531Z,1013.00
2018-04-16T07:59:52.429Z,1013.56
2018-04-16T08:00:52.638Z,1014.03
2018-04-16T08:01:52.412Z,1014.31
2018-04-16T08:02:52.447Z,1014.31
2018-04-16T08:03:52.522Z,1014.18
2018-04-16T08:04:52.534Z,1014.54
2018-04-16T08:05:52.509Z,1015.19
2018-04-16T08:06:52.529Z,1015.47
2018-04-16T08:07:52.476Z,1015.27
2018-04-16T08:08:52.546Z,1014.83
2018-04-16T08:09:52.663Z,1014.84
2018-04-16T08:10:52.518Z,1015.01
2018-04-16T08:11:52.515Z,1014.50
2018-04-16T08:12:52.556Z,1014.63
2018-04-16T08:13:52.604Z,1015.75
2018-04-16T08:14:52.569Z,1016.43
2018-04-16T08:15:52.596Z,1014.96
2018-04-16T08:16:52.590Z,1011.45
2018-04-16T08:17:52.614Z,1011.17
2018-04-16T08:18:52.710Z,1011.01
2018-04-16T08:19:52.785Z,1015.77
2018-04-16T08:20:52.646Z,1012.28
2018-04-16T08:21:52.666Z,1016.00
2018-04-16T08:22:52.652Z,1016.18
2018-04-16T08:23:52.661Z,1017.16
2018-04-16T08:24:52.729Z,1010.89
2018-04-16T08:25:52.762Z,1010.27
2018-04-16T08:26:52.707Z,1017.51
2018-04-16T08:27:52.763Z,1015.58
2018-04-16T08:28:52.705Z,1017.93
2018-04-16T08:29:52.731Z,1012.63
2018-04-16T08:30:52.756Z,1010.62
2018-04-16T08:31:53.262Z,1010.16
2018-04-16T08:32:52.771Z,1010.54
2018-04-16T08:33:52.786Z,1011.00
2018-04-16T08:34:54.291Z,1010.29
2018-04-16T08:35:52.809Z,1009.90
2018-04-16T08:36:53.206Z,1009.96
2018-04-16T08:37:52.871Z,1010.11
2018-04-16T08:38:54.435Z,1010.74
2018-04-16T08:39:52.858Z,1011.79
2018-04-16T08:40:53.456Z,1019.01
2018-04-16T08:41:52.893Z,1018.40
2018-04-16T08:42:53.301Z,1014.64
2018-04-16T08:43:52.961Z,1010.66
2018-04-16T08:44:52.959Z,1013.80
2018-04-16T08:45:53.201Z,1010.93
2018-04-16T08:46:53.078Z,1017.15
2018-04-16T08:47:55.802Z,1016.79
2018-04-16T08:48:52.987Z,1011.07
2018-04-16T08:49:53.670Z,1010.67
2018-04-16T08:50:53.085Z,1012.88
2018-04-16T08:51:53.337Z,1010.46
2018-04-16T08:52:54.497Z,1010.29
2018-04-16T08:54:53.023Z,1016.50
2018-04-16T08:55:53.067Z,1016.55
2018-04-16T08:56:53.042Z,1010.68
2018-04-16T08:57:53.215Z,1010.49
2018-04-16T08:58:53.050Z,1010.45
2018-04-16T08:59:53.062Z,1017.23
2018-04-16T09:00:53.113Z,1017.07
2018-04-16T09:01:53.508Z,1015.16
2018-04-16T09:02:53.085Z,1013.45
2018-04-16T09:03:53.120Z,1010.56
2018-04-16T09:04:53.108Z,1011.84
2018-04-16T09:05:53.117Z,1010.81
2018-04-16T09:06:53.138Z,1010.67
2018-04-16T09:07:53.151Z,1010.64
2018-04-16T09:08:53.167Z,1010.59
2018-04-16T09:09:53.175Z,1010.32
2018-04-16T09:10:53.179Z,1010.12
2018-04-16T09:11:53.203Z,1010.59
2018-04-16T09:12:53.813Z,1010.89
2018-04-16T09:13:53.202Z,1012.06
2018-04-16T09:14:53.225Z,1011.67
2018-04-16T09:15:53.784Z,1013.70
2018-04-16T09:16:53.243Z,1010.30
2018-04-16T09:17:53.232Z,1010.59
2018-04-16T09:18:53.255Z,1010.75
2018-04-16T09:19:53.260Z,1010.39
2018-04-16T09:20:53.400Z,1011.39
2018-04-16T09:21:53.282Z,1011.30
2018-04-16T09:22:53.336Z,1013.36
2018-04-16T09:23:53.342Z,1011.00
2018-04-16T09:24:53.343Z,1010.76
2018-04-16T09:25:53.408Z,1010.96
2018-04-16T09:26:53.345Z,1011.43
2018-04-16T09:27:53.344Z,1011.01
2018-04-16T09:28:53.923Z,1010.35
2018-04-16T09:29:53.400Z,1010.17
2018-04-16T09:30:53.382Z,1010.10
2018-04-16T09:31:53.485Z,1010.19
2018-04-16T09:32:53.427Z,1010.33
2018-04-16T09:33:54.322Z,1010.69
2018-04-16T09:34:53.403Z,1010.69
2018-04-16T09:35:53.410Z,1010.85
2018-04-16T09:36:53.479Z,1010.89
2018-04-16T09:37:53.476Z,1011.27
2018-04-16T09:38:54.339Z,1011.01
2018-04-16T09:39:53.462Z,1011.46
2018-04-16T09:40:53.477Z,1011.33
2018-04-16T09:41:54.321Z,1011.40
2018-04-16T09:42:53.510Z,1011.65
2018-04-16T09:43:53.520Z,1011.16
2018-04-16T09:44:53.498Z,1011.10
2018-04-16T09:45:53.511Z,1010.82
2018-04-16T09:46:53.525Z,1010.70
2018-04-16T09:47:53.540Z,1011.12
2018-04-16T09:48:53.531Z,1011.17
2018-04-16T09:49:53.546Z,1011.42
2018-04-16T09:50:53.603Z,1011.64
2018-04-16T09:51:53.576Z,1011.91
2018-04-16T09:52:53.593Z,1011.51
2018-04-16T09:53:53.594Z,1011.21
2018-04-16T09:54:54.346Z,1011.43
2018-04-16T09:55:53.627Z,1011.16
2018-04-16T09:56:53.636Z,1011.10
2018-04-16T09:57:53.677Z,1011.19
2018-04-16T09:58:53.643Z,1011.39
2018-04-16T09:59:53.687Z,1011.32
2018-04-16T10:00:53.728Z,1011.52
2018-04-16T10:01:53.672Z,1011.64
2018-04-16T10:02:53.739Z,1011.82
2018-04-16T10:03:53.797Z,1011.90
2018-04-16T10:04:53.737Z,1011.95
2018-04-16T10:05:53.717Z,1012.97
2018-04-16T10:06:54.338Z,1013.11
2018-04-16T10:07:53.736Z,1013.60
2018-04-16T10:08:53.764Z,1013.31
2018-04-16T10:09:53.875Z,1013.28
2018-04-16T10:10:53.809Z,1013.12
2018-04-16T10:11:53.799Z,1012.98
2018-04-16T10:12:53.869Z,1012.90
2018-04-16T10:13:53.824Z,1012.87
2018-04-16T10:14:53.815Z,1012.50
2018-04-16T10:15:53.832Z,1012.46
2018-04-16T10:16:53.872Z,1012.27
2018-04-16T10:17:53.875Z,1012.36
2018-04-16T10:18:53.915Z,1011.20
2018-04-16T10:19:53.956Z,1011.06
2018-04-16T10:20:53.941Z,1010.93
2018-04-16T10:21:53.954Z,1010.84
2018-04-16T10:22:54.684Z,1011.76
2018-04-16T10:23:53.986Z,1011.28
2018-04-16T10:24:53.973Z,1011.69
2018-04-16T10:25:54.053Z,1011.11
2018-04-16T10:26:55.364Z,1011.03
2018-04-16T10:27:54.031Z,1010.86
2018-04-16T10:28:54.097Z,1011.60
2018-04-16T10:29:54.076Z,1011.43
2018-04-16T10:30:54.256Z,1011.73
2018-04-16T10:31:54.085Z,1011.77
2018-04-16T10:32:54.117Z,1011.69
2018-04-16T10:33:54.154Z,1010.68
2018-04-16T10:34:54.161Z,1011.62
2018-04-16T10:35:54.167Z,1011.78
2018-04-16T10:36:54.169Z,1011.69
2018-04-16T10:37:54.245Z,1011.52
2018-04-16T10:38:54.200Z,1010.73
2018-04-16T10:39:54.255Z,1011.27
2018-04-16T10:40:54.235Z,1011.36
2018-04-16T10:41:54.864Z,1011.34
2018-04-16T10:42:54.454Z,1011.23
2018-04-16T10:43:54.268Z,1011.07
2018-04-16T10:44:54.310Z,1010.93
2018-04-16T10:45:54.333Z,1010.98
2018-04-16T10:46:54.351Z,1011.11
2018-04-16T10:47:54.370Z,1011.11
2018-04-16T10:48:54.355Z,1010.69
2018-04-16T10:49:54.370Z,1010.56
2018-04-16T10:50:54.395Z,1010.41
2018-04-16T10:51:54.428Z,1010.35
2018-04-16T10:52:54.419Z,1010.40
2018-04-16T10:53:54.467Z,1010.43
2018-04-16T10:54:54.450Z,1010.97
2018-04-16T10:55:54.464Z,1010.62
2018-04-16T10:56:54.509Z,1010.65
2018-04-16T10:57:54.709Z,1010.86
2018-04-16T10:58:54.527Z,1010.63
2018-04-16T10:59:54.521Z,1010.61
2018-04-16T11:00:54.609Z,1010.65
2018-04-16T11:01:54.685Z,1010.51
2018-04-16T11:02:54.574Z,1010.60
2018-04-16T11:03:54.595Z,1010.59
2018-04-16T11:04:54.589Z,1010.61
2018-04-16T11:05:54.601Z,1010.76
2018-04-16T11:06:54.613Z,1010.71
2018-04-16T11:07:54.628Z,1010.75
2018-04-16T11:08:54.644Z,1010.76
2018-04-16T11:09:54.644Z,1010.67
2018-04-16T11:10:54.737Z,1010.68
2018-04-16T11:11:55.378Z,1010.63
2018-04-16T11:12:54.787Z,1010.62
2018-04-16T11:13:54.729Z,1010.63
2018-04-16T11:14:54.717Z,1010.79
2018-04-16T11:15:54.730Z,1010.75
2018-04-16T11:16:54.745Z,1010.69
2018-04-16T11:17:54.761Z,1010.59
2018-04-16T11:18:54.796Z,1010.58
2018-04-16T11:19:54.867Z,1010.48
2018-04-16T11:20:54.826Z,1010.51
2018-04-16T11:21:55.409Z,1010.52
2018-04-16T11:22:54.809Z,1010.51
2018-04-16T11:23:54.815Z,1010.51
2018-04-16T11:24:54.837Z,1010.53
2018-04-16T11:25:54.819Z,1010.50
2018-04-16T11:26:54.858Z,1010.56
2018-04-16T11:27:54.835Z,1010.58
2018-04-16T11:28:54.866Z,1010.62
2018-04-16T11:29:54.857Z,1010.71
2018-04-16T11:30:54.879Z,1010.74
2018-04-16T11:31:54.896Z,1010.63
2018-04-16T11:32:55.084Z,1010.58
2018-04-16T11:33:55.054Z,1010.60
2018-04-16T11:34:54.907Z,1010.55
2018-04-16T11:35:54.908Z,1010.54
2018-04-16T11:36:54.917Z,1010.57
2018-04-16T11:37:55.023Z,1010.67
2018-04-16T11:38:54.924Z,1010.75
2018-04-16T11:39:55.015Z,1010.90
2018-04-16T11:40:55.897Z,1010.99
2018-04-16T11:41:54.975Z,1010.82
2018-04-16T11:42:55.896Z,1010.66
2018-04-16T11:43:55.025Z,1010.55
2018-04-16T11:44:55.910Z,1010.50
2018-04-16T11:45:55.069Z,1010.50
2018-04-16T11:46:55.002Z,1010.45
2018-04-16T11:47:55.035Z,1010.49
2018-04-16T11:48:55.064Z,1010.51
2018-04-16T11:49:55.051Z,1010.51
2018-04-16T11:50:55.904Z,1010.63
2018-04-16T11:51:55.035Z,1010.77
2018-04-16T11:52:55.063Z,1010.78
2018-04-16T11:53:55.060Z,1010.75
2018-04-16T11:54:55.075Z,1010.68
2018-04-16T11:55:55.107Z,1010.61
2018-04-16T11:56:55.096Z,1010.47
2018-04-16T11:57:55.090Z,1010.47
2018-04-16T11:58:55.099Z,1010.43
2018-04-16T11:59:55.133Z,1010.39
2018-04-16T12:00:55.299Z,1010.37
2018-04-16T12:01:55.171Z,1010.49
2018-04-16T12:02:55.150Z,1010.56
2018-04-16T12:03:55.140Z,1010.65
2018-04-16T12:04:55.135Z,1010.61
2018-04-16T12:05:55.170Z,1010.68
2018-04-16T12:06:55.164Z,1010.67
2018-04-16T12:07:55.229Z,1010.62
2018-04-16T12:08:55.193Z,1010.42
2018-04-16T12:09:55.229Z,1010.40
2018-04-16T12:10:55.294Z,1010.42
2018-04-16T12:11:55.228Z,1010.36
2018-04-16T12:12:55.217Z,1010.46
2018-04-16T12:13:55.231Z,1010.49
2018-04-16T12:14:55.241Z,1010.55
2018-04-16T12:15:55.238Z,1010.55
2018-04-16T12:16:55.222Z,1010.57
2018-04-16T12:17:55.238Z,1010.62
2018-04-16T12:18:55.250Z,1010.59
2018-04-16T12:19:55.254Z,1010.58
2018-04-16T12:20:55.319Z,1010.52
2018-04-16T12:21:55.335Z,1010.61
2018-04-16T12:22:55.274Z,1010.61
2018-04-16T12:23:55.359Z,1010.58
2018-04-16T12:24:55.323Z,1010.54
2018-04-16T12:25:55.301Z,1010.51
2018-04-16T12:26:55.373Z,1010.47
2018-04-16T12:27:55.310Z,1010.41
2018-04-16T12:28:55.313Z,1010.39
2018-04-16T12:29:55.365Z,1010.43
2018-04-16T12:30:55.333Z,1010.49